sensor_id;sensor_type;location;lat;lon;timestamp;P1;durP1;ratioP1;P2;durP2;ratioP2
24901;SDS011;31328;51.402;0.016;2023-04-24T00:00:43;37.20;;;23.63;;
24901;SDS011;31328;51.402;0.016;2023-04-24T00:03:10;39.77;;;23.00;;
24901;SDS011;31328;51.402;0.016;2023-04-24T00:05:38;36.57;;;22.00;;
24901;SDS011;31328;51.402;0.016;2023-04-24T00:08:05;39.33;;;22.10;;
24901;SDS011;31328;51.402;0.016;2023-04-24T00:10:32;36.53;;;21.73;;
24901;SDS011;31328;51.402;0.016;2023-04-24T00:12:58;36.17;;;22.60;;
24901;SDS011;31328;51.402;0.016;2023-04-24T00:15:24;37.63;;;22.60;;
24901;SDS011;31328;51.402;0.016;2023-04-24T00:17:51;38.77;;;23.77;;
24901;SDS011;31328;51.402;0.016;2023-04-24T00:20:18;36.90;;;22.97;;
24901;SDS011;31328;51.402;0.016;2023-04-24T00:22:45;33.47;;;21.63;;
24901;SDS011;31328;51.402;0.016;2023-04-24T00:25:11;34.87;;;22.80;;
24901;SDS011;31328;51.402;0.016;2023-04-24T00:27:38;36.97;;;22.87;;
24901;SDS011;31328;51.402;0.016;2023-04-24T00:30:04;33.37;;;21.83;;
24901;SDS011;31328;51.402;0.016;2023-04-24T00:32:31;35.80;;;21.37;;
24901;SDS011;31328;51.402;0.016;2023-04-24T00:34:58;35.70;;;21.87;;
24901;SDS011;31328;51.402;0.016;2023-04-24T00:37:24;37.47;;;22.70;;
24901;SDS011;31328;51.402;0.016;2023-04-24T00:39:51;32.30;;;20.43;;
24901;SDS011;31328;51.402;0.016;2023-04-24T00:42:17;33.67;;;20.70;;
24901;SDS011;31328;51.402;0.016;2023-04-24T00:44:43;38.80;;;23.07;;
24901;SDS011;31328;51.402;0.016;2023-04-24T00:47:10;32.60;;;21.27;;
24901;SDS011;31328;51.402;0.016;2023-04-24T00:49:38;32.57;;;21.03;;
24901;SDS011;31328;51.402;0.016;2023-04-24T00:52:04;34.70;;;21.07;;
24901;SDS011;31328;51.402;0.016;2023-04-24T00:54:34;31.83;;;20.37;;
24901;SDS011;31328;51.402;0.016;2023-04-24T00:57:02;32.53;;;20.37;;
24901;SDS011;31328;51.402;0.016;2023-04-24T00:59:29;35.27;;;20.27;;
24901;SDS011;31328;51.402;0.016;2023-04-24T01:01:56;35.47;;;21.33;;
24901;SDS011;31328;51.402;0.016;2023-04-24T01:04:23;32.70;;;19.60;;
24901;SDS011;31328;51.402;0.016;2023-04-24T01:06:50;34.17;;;20.43;;
24901;SDS011;31328;51.402;0.016;2023-04-24T01:09:17;35.67;;;21.50;;
24901;SDS011;31328;51.402;0.016;2023-04-24T01:11:44;34.07;;;20.60;;
24901;SDS011;31328;51.402;0.016;2023-04-24T01:14:11;32.27;;;19.83;;
24901;SDS011;31328;51.402;0.016;2023-04-24T01:16:37;32.07;;;20.37;;
24901;SDS011;31328;51.402;0.016;2023-04-24T01:19:06;32.50;;;20.63;;
24901;SDS011;31328;51.402;0.016;2023-04-24T01:21:35;31.77;;;20.40;;
24901;SDS011;31328;51.402;0.016;2023-04-24T01:24:03;34.37;;;21.90;;
24901;SDS011;31328;51.402;0.016;2023-04-24T01:26:30;33.40;;;19.80;;
24901;SDS011;31328;51.402;0.016;2023-04-24T01:28:57;30.00;;;20.43;;
24901;SDS011;31328;51.402;0.016;2023-04-24T01:31:23;32.77;;;20.17;;
24901;SDS011;31328;51.402;0.016;2023-04-24T01:33:50;32.60;;;20.27;;
24901;SDS011;31328;51.402;0.016;2023-04-24T01:36:17;33.07;;;20.73;;
24901;SDS011;31328;51.402;0.016;2023-04-24T01:38:44;31.50;;;19.20;;
24901;SDS011;31328;51.402;0.016;2023-04-24T01:41:10;30.73;;;20.33;;
24901;SDS011;31328;51.402;0.016;2023-04-24T01:43:37;29.30;;;19.27;;
24901;SDS011;31328;51.402;0.016;2023-04-24T01:46:03;34.00;;;20.80;;
24901;SDS011;31328;51.402;0.016;2023-04-24T01:48:30;30.70;;;19.03;;
24901;SDS011;31328;51.402;0.016;2023-04-24T01:50:57;31.43;;;19.33;;
24901;SDS011;31328;51.402;0.016;2023-04-24T01:53:24;31.10;;;19.00;;
24901;SDS011;31328;51.402;0.016;2023-04-24T01:55:50;34.20;;;19.63;;
24901;SDS011;31328;51.402;0.016;2023-04-24T01:58:16;33.63;;;20.33;;
24901;SDS011;31328;51.402;0.016;2023-04-24T02:00:43;30.67;;;19.63;;
24901;SDS011;31328;51.402;0.016;2023-04-24T02:03:09;33.07;;;20.83;;
24901;SDS011;31328;51.402;0.016;2023-04-24T02:05:35;33.93;;;19.87;;
24901;SDS011;31328;51.402;0.016;2023-04-24T02:08:02;32.40;;;19.90;;
24901;SDS011;31328;51.402;0.016;2023-04-24T02:10:29;31.50;;;19.73;;
24901;SDS011;31328;51.402;0.016;2023-04-24T02:12:55;36.10;;;19.90;;
24901;SDS011;31328;51.402;0.016;2023-04-24T02:15:23;31.63;;;19.73;;
24901;SDS011;31328;51.402;0.016;2023-04-24T02:17:50;35.13;;;21.67;;
24901;SDS011;31328;51.402;0.016;2023-04-24T02:20:16;32.00;;;20.27;;
24901;SDS011;31328;51.402;0.016;2023-04-24T02:22:43;33.70;;;20.43;;
24901;SDS011;31328;51.402;0.016;2023-04-24T02:25:09;33.87;;;20.67;;
24901;SDS011;31328;51.402;0.016;2023-04-24T02:27:36;32.93;;;18.80;;
24901;SDS011;31328;51.402;0.016;2023-04-24T02:30:05;31.53;;;19.33;;
24901;SDS011;31328;51.402;0.016;2023-04-24T02:32:33;31.43;;;20.30;;
24901;SDS011;31328;51.402;0.016;2023-04-24T02:34:59;34.70;;;20.60;;
24901;SDS011;31328;51.402;0.016;2023-04-24T02:37:26;29.13;;;18.80;;
24901;SDS011;31328;51.402;0.016;2023-04-24T02:39:52;28.47;;;18.30;;
24901;SDS011;31328;51.402;0.016;2023-04-24T02:42:18;32.17;;;19.90;;
24901;SDS011;31328;51.402;0.016;2023-04-24T02:44:44;33.77;;;19.80;;
24901;SDS011;31328;51.402;0.016;2023-04-24T02:47:10;33.70;;;19.67;;
24901;SDS011;31328;51.402;0.016;2023-04-24T02:49:37;30.43;;;19.47;;
24901;SDS011;31328;51.402;0.016;2023-04-24T02:52:03;31.50;;;19.07;;
24901;SDS011;31328;51.402;0.016;2023-04-24T02:54:29;34.57;;;20.37;;
24901;SDS011;31328;51.402;0.016;2023-04-24T02:56:56;32.00;;;19.90;;
24901;SDS011;31328;51.402;0.016;2023-04-24T02:59:22;30.80;;;18.27;;
24901;SDS011;31328;51.402;0.016;2023-04-24T03:01:48;30.57;;;18.23;;
24901;SDS011;31328;51.402;0.016;2023-04-24T03:04:15;28.47;;;17.53;;
24901;SDS011;31328;51.402;0.016;2023-04-24T03:06:41;28.87;;;18.27;;
24901;SDS011;31328;51.402;0.016;2023-04-24T03:09:07;26.17;;;17.53;;
24901;SDS011;31328;51.402;0.016;2023-04-24T03:11:33;25.63;;;16.53;;
24901;SDS011;31328;51.402;0.016;2023-04-24T03:14:00;26.67;;;17.23;;
24901;SDS011;31328;51.402;0.016;2023-04-24T03:16:26;27.47;;;17.03;;
24901;SDS011;31328;51.402;0.016;2023-04-24T03:18:54;24.37;;;16.70;;
24901;SDS011;31328;51.402;0.016;2023-04-24T03:24:23;25.73;;;16.00;;
24901;SDS011;31328;51.402;0.016;2023-04-24T03:26:51;27.23;;;17.40;;
24901;SDS011;31328;51.402;0.016;2023-04-24T03:29:36;28.80;;;16.73;;
24901;SDS011;31328;51.402;0.016;2023-04-24T03:32:02;28.63;;;16.53;;
24901;SDS011;31328;51.402;0.016;2023-04-24T03:34:29;25.97;;;16.67;;
24901;SDS011;31328;51.402;0.016;2023-04-24T03:36:57;26.20;;;16.73;;
24901;SDS011;31328;51.402;0.016;2023-04-24T03:39:24;24.57;;;16.17;;
24901;SDS011;31328;51.402;0.016;2023-04-24T03:41:54;29.57;;;16.10;;
24901;SDS011;31328;51.402;0.016;2023-04-24T03:44:25;24.47;;;15.93;;
24901;SDS011;31328;51.402;0.016;2023-04-24T03:46:51;22.97;;;15.90;;
24901;SDS011;31328;51.402;0.016;2023-04-24T03:49:20;26.90;;;16.40;;
24901;SDS011;31328;51.402;0.016;2023-04-24T03:51:47;27.90;;;16.93;;
24901;SDS011;31328;51.402;0.016;2023-04-24T03:54:21;28.83;;;15.98;;
24901;SDS011;31328;51.402;0.016;2023-04-24T03:56:49;26.33;;;16.87;;
24901;SDS011;31328;51.402;0.016;2023-04-24T03:59:16;27.83;;;16.57;;
24901;SDS011;31328;51.402;0.016;2023-04-24T04:01:47;27.20;;;16.40;;
24901;SDS011;31328;51.402;0.016;2023-04-24T04:04:15;25.30;;;16.37;;
24901;SDS011;31328;51.402;0.016;2023-04-24T04:06:43;24.77;;;16.63;;
24901;SDS011;31328;51.402;0.016;2023-04-24T04:09:10;31.60;;;18.27;;
24901;SDS011;31328;51.402;0.016;2023-04-24T04:11:36;27.93;;;16.83;;
24901;SDS011;31328;51.402;0.016;2023-04-24T04:14:02;24.30;;;15.93;;
24901;SDS011;31328;51.402;0.016;2023-04-24T04:16:30;23.97;;;14.90;;
24901;SDS011;31328;51.402;0.016;2023-04-24T04:19:01;24.67;;;15.23;;
24901;SDS011;31328;51.402;0.016;2023-04-24T04:21:29;27.90;;;16.50;;
24901;SDS011;31328;51.402;0.016;2023-04-24T04:24:06;23.73;;;15.20;;
24901;SDS011;31328;51.402;0.016;2023-04-24T04:26:37;22.93;;;14.97;;
24901;SDS011;31328;51.402;0.016;2023-04-24T04:29:06;25.80;;;15.83;;
24901;SDS011;31328;51.402;0.016;2023-04-24T04:31:35;25.60;;;15.70;;
24901;SDS011;31328;51.402;0.016;2023-04-24T04:34:06;24.47;;;16.03;;
24901;SDS011;31328;51.402;0.016;2023-04-24T04:36:34;24.83;;;14.87;;
24901;SDS011;31328;51.402;0.016;2023-04-24T04:39:09;28.60;;;16.17;;
24901;SDS011;31328;51.402;0.016;2023-04-24T04:41:50;24.03;;;15.60;;
24901;SDS011;31328;51.402;0.016;2023-04-24T04:44:19;23.97;;;15.87;;
24901;SDS011;31328;51.402;0.016;2023-04-24T04:46:45;26.93;;;16.30;;
24901;SDS011;31328;51.402;0.016;2023-04-24T04:49:29;26.60;;;16.92;;
24901;SDS011;31328;51.402;0.016;2023-04-24T04:51:56;24.70;;;15.90;;
24901;SDS011;31328;51.402;0.016;2023-04-24T04:54:25;22.73;;;14.10;;
24901;SDS011;31328;51.402;0.016;2023-04-24T04:56:52;26.00;;;16.70;;
24901;SDS011;31328;51.402;0.016;2023-04-24T04:59:18;26.37;;;16.03;;
24901;SDS011;31328;51.402;0.016;2023-04-24T05:01:46;27.03;;;16.40;;
24901;SDS011;31328;51.402;0.016;2023-04-24T05:04:14;27.93;;;16.07;;
24901;SDS011;31328;51.402;0.016;2023-04-24T05:06:41;29.43;;;17.37;;
24901;SDS011;31328;51.402;0.016;2023-04-24T05:09:07;28.13;;;16.57;;
24901;SDS011;31328;51.402;0.016;2023-04-24T05:12:00;26.63;;;16.13;;
24901;SDS011;31328;51.402;0.016;2023-04-24T05:14:29;32.37;;;17.20;;
24901;SDS011;31328;51.402;0.016;2023-04-24T05:16:56;28.57;;;17.50;;
24901;SDS011;31328;51.402;0.016;2023-04-24T05:19:25;26.77;;;17.20;;
24901;SDS011;31328;51.402;0.016;2023-04-24T05:21:51;28.20;;;17.83;;
24901;SDS011;31328;51.402;0.016;2023-04-24T05:24:18;30.30;;;17.77;;
24901;SDS011;31328;51.402;0.016;2023-04-24T05:26:54;31.87;;;20.47;;
24901;SDS011;31328;51.402;0.016;2023-04-24T05:29:25;30.03;;;18.30;;
24901;SDS011;31328;51.402;0.016;2023-04-24T05:31:53;26.87;;;17.10;;
24901;SDS011;31328;51.402;0.016;2023-04-24T05:34:19;24.73;;;17.03;;
24901;SDS011;31328;51.402;0.016;2023-04-24T05:36:50;31.87;;;17.43;;
24901;SDS011;31328;51.402;0.016;2023-04-24T05:39:16;27.37;;;16.37;;
24901;SDS011;31328;51.402;0.016;2023-04-24T05:41:43;22.43;;;14.53;;
24901;SDS011;31328;51.402;0.016;2023-04-24T05:44:09;23.17;;;16.03;;
24901;SDS011;31328;51.402;0.016;2023-04-24T05:46:36;27.03;;;16.77;;
24901;SDS011;31328;51.402;0.016;2023-04-24T05:49:02;27.17;;;14.80;;
24901;SDS011;31328;51.402;0.016;2023-04-24T05:51:31;25.10;;;15.27;;
24901;SDS011;31328;51.402;0.016;2023-04-24T05:53:58;25.33;;;16.13;;
24901;SDS011;31328;51.402;0.016;2023-04-24T05:56:25;25.20;;;14.80;;
24901;SDS011;31328;51.402;0.016;2023-04-24T05:58:52;27.30;;;15.27;;
24901;SDS011;31328;51.402;0.016;2023-04-24T06:01:18;23.60;;;15.07;;
24901;SDS011;31328;51.402;0.016;2023-04-24T06:03:51;24.27;;;15.10;;
24901;SDS011;31328;51.402;0.016;2023-04-24T06:06:18;25.53;;;15.17;;
24901;SDS011;31328;51.402;0.016;2023-04-24T06:08:45;24.37;;;15.17;;
24901;SDS011;31328;51.402;0.016;2023-04-24T06:11:12;23.70;;;14.67;;
24901;SDS011;31328;51.402;0.016;2023-04-24T06:13:39;23.50;;;14.50;;
24901;SDS011;31328;51.402;0.016;2023-04-24T06:16:24;22.27;;;12.97;;
24901;SDS011;31328;51.402;0.016;2023-04-24T06:18:58;19.63;;;11.60;;
24901;SDS011;31328;51.402;0.016;2023-04-24T06:21:24;12.87;;;6.80;;
24901;SDS011;31328;51.402;0.016;2023-04-24T06:23:51;11.30;;;4.47;;
24901;SDS011;31328;51.402;0.016;2023-04-24T06:26:17;8.63;;;3.53;;
24901;SDS011;31328;51.402;0.016;2023-04-24T06:28:44;8.57;;;3.77;;
24901;SDS011;31328;51.402;0.016;2023-04-24T06:31:10;5.13;;;2.97;;
24901;SDS011;31328;51.402;0.016;2023-04-24T06:33:38;7.27;;;3.10;;
24901;SDS011;31328;51.402;0.016;2023-04-24T06:36:04;6.93;;;2.80;;
24901;SDS011;31328;51.402;0.016;2023-04-24T06:38:30;4.80;;;2.50;;
24901;SDS011;31328;51.402;0.016;2023-04-24T06:40:57;5.87;;;2.83;;
24901;SDS011;31328;51.402;0.016;2023-04-24T06:43:23;7.67;;;2.83;;
24901;SDS011;31328;51.402;0.016;2023-04-24T06:45:50;6.70;;;2.73;;
24901;SDS011;31328;51.402;0.016;2023-04-24T06:48:16;5.50;;;2.50;;
24901;SDS011;31328;51.402;0.016;2023-04-24T06:50:42;6.33;;;3.17;;
24901;SDS011;31328;51.402;0.016;2023-04-24T06:53:08;7.63;;;2.50;;
24901;SDS011;31328;51.402;0.016;2023-04-24T06:55:36;7.93;;;2.67;;
24901;SDS011;31328;51.402;0.016;2023-04-24T06:58:03;5.20;;;2.30;;
24901;SDS011;31328;51.402;0.016;2023-04-24T07:00:29;4.90;;;2.57;;
24901;SDS011;31328;51.402;0.016;2023-04-24T07:02:55;8.53;;;3.27;;
24901;SDS011;31328;51.402;0.016;2023-04-24T07:05:23;6.07;;;2.07;;
24901;SDS011;31328;51.402;0.016;2023-04-24T07:07:49;9.10;;;2.67;;
24901;SDS011;31328;51.402;0.016;2023-04-24T07:10:17;4.90;;;2.10;;
24901;SDS011;31328;51.402;0.016;2023-04-24T07:12:43;5.40;;;2.97;;
24901;SDS011;31328;51.402;0.016;2023-04-24T07:15:10;5.30;;;2.93;;
24901;SDS011;31328;51.402;0.016;2023-04-24T07:17:36;6.30;;;3.20;;
24901;SDS011;31328;51.402;0.016;2023-04-24T07:20:04;5.53;;;2.20;;
24901;SDS011;31328;51.402;0.016;2023-04-24T07:22:33;4.23;;;2.07;;
24901;SDS011;31328;51.402;0.016;2023-04-24T07:24:59;5.17;;;2.13;;
24901;SDS011;31328;51.402;0.016;2023-04-24T07:27:27;4.10;;;1.73;;
24901;SDS011;31328;51.402;0.016;2023-04-24T07:29:53;6.50;;;2.87;;
24901;SDS011;31328;51.402;0.016;2023-04-24T07:32:19;6.37;;;2.30;;
24901;SDS011;31328;51.402;0.016;2023-04-24T07:34:45;6.73;;;2.43;;
24901;SDS011;31328;51.402;0.016;2023-04-24T07:37:12;5.20;;;2.43;;
24901;SDS011;31328;51.402;0.016;2023-04-24T07:39:38;5.57;;;2.30;;
24901;SDS011;31328;51.402;0.016;2023-04-24T07:42:04;6.17;;;2.00;;
24901;SDS011;31328;51.402;0.016;2023-04-24T07:44:31;4.83;;;2.23;;
24901;SDS011;31328;51.402;0.016;2023-04-24T07:46:57;6.43;;;2.17;;
24901;SDS011;31328;51.402;0.016;2023-04-24T07:49:24;11.50;;;2.27;;
24901;SDS011;31328;51.402;0.016;2023-04-24T07:51:50;4.27;;;1.90;;
24901;SDS011;31328;51.402;0.016;2023-04-24T07:54:16;7.43;;;1.90;;
24901;SDS011;31328;51.402;0.016;2023-04-24T07:56:43;8.40;;;2.40;;
24901;SDS011;31328;51.402;0.016;2023-04-24T07:59:10;7.03;;;2.23;;
24901;SDS011;31328;51.402;0.016;2023-04-24T08:01:36;3.73;;;2.13;;
24901;SDS011;31328;51.402;0.016;2023-04-24T08:04:03;4.10;;;2.20;;
24901;SDS011;31328;51.402;0.016;2023-04-24T08:06:30;6.87;;;2.33;;
24901;SDS011;31328;51.402;0.016;2023-04-24T08:08:57;2.50;;;1.73;;
24901;SDS011;31328;51.402;0.016;2023-04-24T08:11:24;4.80;;;1.90;;
24901;SDS011;31328;51.402;0.016;2023-04-24T08:13:51;5.70;;;2.50;;
24901;SDS011;31328;51.402;0.016;2023-04-24T08:16:17;4.83;;;2.10;;
24901;SDS011;31328;51.402;0.016;2023-04-24T08:18:44;3.03;;;1.50;;
24901;SDS011;31328;51.402;0.016;2023-04-24T08:21:10;6.38;;;2.17;;
24901;SDS011;31328;51.402;0.016;2023-04-24T08:23:38;8.13;;;2.20;;
24901;SDS011;31328;51.402;0.016;2023-04-24T08:26:04;5.33;;;2.03;;
24901;SDS011;31328;51.402;0.016;2023-04-24T08:28:33;7.13;;;2.60;;
24901;SDS011;31328;51.402;0.016;2023-04-24T08:30:59;6.83;;;2.40;;
24901;SDS011;31328;51.402;0.016;2023-04-24T08:33:25;4.82;;;2.25;;
24901;SDS011;31328;51.402;0.016;2023-04-24T08:35:52;5.88;;;2.30;;
24901;SDS011;31328;51.402;0.016;2023-04-24T08:38:19;4.80;;;2.60;;
24901;SDS011;31328;51.402;0.016;2023-04-24T08:40:45;9.18;;;4.18;;
24901;SDS011;31328;51.402;0.016;2023-04-24T08:43:15;3.97;;;2.72;;
24901;SDS011;31328;51.402;0.016;2023-04-24T08:45:42;5.70;;;2.60;;
24901;SDS011;31328;51.402;0.016;2023-04-24T08:48:08;5.22;;;2.25;;
24901;SDS011;31328;51.402;0.016;2023-04-24T08:50:35;4.77;;;2.70;;
24901;SDS011;31328;51.402;0.016;2023-04-24T08:53:03;8.43;;;2.60;;
24901;SDS011;31328;51.402;0.016;2023-04-24T08:55:32;4.68;;;2.45;;
24901;SDS011;31328;51.402;0.016;2023-04-24T08:57:59;5.90;;;2.90;;
24901;SDS011;31328;51.402;0.016;2023-04-24T09:00:27;4.18;;;2.85;;
24901;SDS011;31328;51.402;0.016;2023-04-24T09:02:54;6.60;;;3.20;;
24901;SDS011;31328;51.402;0.016;2023-04-24T09:05:22;9.27;;;4.75;;
24901;SDS011;31328;51.402;0.016;2023-04-24T09:07:51;7.22;;;3.10;;
24901;SDS011;31328;51.402;0.016;2023-04-24T09:10:21;7.57;;;2.78;;
24901;SDS011;31328;51.402;0.016;2023-04-24T09:12:48;6.30;;;3.40;;
24901;SDS011;31328;51.402;0.016;2023-04-24T09:15:17;4.82;;;3.17;;
24901;SDS011;31328;51.402;0.016;2023-04-24T09:17:46;4.88;;;3.22;;
24901;SDS011;31328;51.402;0.016;2023-04-24T09:20:13;5.50;;;3.85;;
24901;SDS011;31328;51.402;0.016;2023-04-24T09:22:39;6.88;;;3.60;;
24901;SDS011;31328;51.402;0.016;2023-04-24T09:25:07;6.07;;;3.30;;
24901;SDS011;31328;51.402;0.016;2023-04-24T09:27:34;5.07;;;3.40;;
24901;SDS011;31328;51.402;0.016;2023-04-24T09:30:01;9.52;;;3.88;;
24901;SDS011;31328;51.402;0.016;2023-04-24T09:32:28;6.68;;;3.30;;
24901;SDS011;31328;51.402;0.016;2023-04-24T09:37:51;4.50;;;3.50;;
24901;SDS011;31328;51.402;0.016;2023-04-24T09:40:18;10.02;;;4.03;;
24901;SDS011;31328;51.402;0.016;2023-04-24T09:42:51;4.75;;;3.22;;
24901;SDS011;31328;51.402;0.016;2023-04-24T09:45:21;4.80;;;3.45;;
24901;SDS011;31328;51.402;0.016;2023-04-24T09:47:51;6.55;;;2.92;;
24901;SDS011;31328;51.402;0.016;2023-04-24T09:50:19;7.07;;;3.63;;
24901;SDS011;31328;51.402;0.016;2023-04-24T09:52:46;7.25;;;3.08;;
24901;SDS011;31328;51.402;0.016;2023-04-24T09:55:22;5.03;;;3.40;;
24901;SDS011;31328;51.402;0.016;2023-04-24T09:57:49;6.70;;;3.85;;
24901;SDS011;31328;51.402;0.016;2023-04-24T10:00:21;5.47;;;3.03;;
24901;SDS011;31328;51.402;0.016;2023-04-24T10:03:00;7.93;;;3.58;;
24901;SDS011;31328;51.402;0.016;2023-04-24T10:05:29;9.63;;;3.70;;
24901;SDS011;31328;51.402;0.016;2023-04-24T10:08:00;5.57;;;3.70;;
24901;SDS011;31328;51.402;0.016;2023-04-24T10:10:29;6.63;;;3.95;;
24901;SDS011;31328;51.402;0.016;2023-04-24T10:12:56;7.57;;;3.70;;
24901;SDS011;31328;51.402;0.016;2023-04-24T10:15:22;7.22;;;3.70;;
24901;SDS011;31328;51.402;0.016;2023-04-24T10:17:50;6.38;;;3.50;;
24901;SDS011;31328;51.402;0.016;2023-04-24T10:20:20;4.85;;;3.30;;
24901;SDS011;31328;51.402;0.016;2023-04-24T10:22:48;6.63;;;3.70;;
24901;SDS011;31328;51.402;0.016;2023-04-24T10:25:16;5.25;;;3.63;;
24901;SDS011;31328;51.402;0.016;2023-04-24T10:27:47;8.02;;;4.05;;
24901;SDS011;31328;51.402;0.016;2023-04-24T10:30:15;8.27;;;3.60;;
24901;SDS011;31328;51.402;0.016;2023-04-24T10:32:42;7.00;;;3.38;;
24901;SDS011;31328;51.402;0.016;2023-04-24T10:35:09;7.13;;;3.80;;
24901;SDS011;31328;51.402;0.016;2023-04-24T10:37:39;6.53;;;3.53;;
24901;SDS011;31328;51.402;0.016;2023-04-24T10:40:08;8.52;;;3.72;;
24901;SDS011;31328;51.402;0.016;2023-04-24T10:42:39;6.50;;;3.72;;
24901;SDS011;31328;51.402;0.016;2023-04-24T10:45:07;7.25;;;3.47;;
24901;SDS011;31328;51.402;0.016;2023-04-24T10:47:50;6.97;;;4.32;;
24901;SDS011;31328;51.402;0.016;2023-04-24T10:50:18;7.88;;;4.10;;
24901;SDS011;31328;51.402;0.016;2023-04-24T10:52:44;6.32;;;4.05;;
24901;SDS011;31328;51.402;0.016;2023-04-24T10:55:12;7.47;;;3.80;;
24901;SDS011;31328;51.402;0.016;2023-04-24T10:57:43;8.02;;;4.38;;
24901;SDS011;31328;51.402;0.016;2023-04-24T11:00:29;6.90;;;4.05;;
24901;SDS011;31328;51.402;0.016;2023-04-24T11:02:56;10.60;;;4.13;;
24901;SDS011;31328;51.402;0.016;2023-04-24T11:05:48;10.73;;;4.43;;
24901;SDS011;31328;51.402;0.016;2023-04-24T11:11:15;8.57;;;4.57;;
24901;SDS011;31328;51.402;0.016;2023-04-24T11:18:52;8.68;;;4.82;;
24901;SDS011;31328;51.402;0.016;2023-04-24T11:21:28;8.40;;;4.10;;
24901;SDS011;31328;51.402;0.016;2023-04-24T11:24:57;7.78;;;3.63;;
24901;SDS011;31328;51.402;0.016;2023-04-24T11:29:49;7.05;;;3.53;;
24901;SDS011;31328;51.402;0.016;2023-04-24T11:35:07;7.03;;;3.40;;
24901;SDS011;31328;51.402;0.016;2023-04-24T11:37:40;8.48;;;3.85;;
24901;SDS011;31328;51.402;0.016;2023-04-24T11:40:08;6.93;;;4.18;;
24901;SDS011;31328;51.402;0.016;2023-04-24T11:42:40;7.00;;;3.03;;
24901;SDS011;31328;51.402;0.016;2023-04-24T11:45:14;5.65;;;3.70;;
24901;SDS011;31328;51.402;0.016;2023-04-24T11:47:44;7.13;;;3.55;;
24901;SDS011;31328;51.402;0.016;2023-04-24T11:50:11;5.10;;;3.50;;
24901;SDS011;31328;51.402;0.016;2023-04-24T11:52:40;5.95;;;3.47;;
24901;SDS011;31328;51.402;0.016;2023-04-24T11:55:12;5.45;;;3.00;;
24901;SDS011;31328;51.402;0.016;2023-04-24T11:57:49;5.93;;;3.28;;
24901;SDS011;31328;51.402;0.016;2023-04-24T12:00:17;8.60;;;4.10;;
24901;SDS011;31328;51.402;0.016;2023-04-24T12:02:45;6.57;;;3.88;;
24901;SDS011;31328;51.402;0.016;2023-04-24T12:05:21;6.97;;;4.65;;
24901;SDS011;31328;51.402;0.016;2023-04-24T12:07:49;8.98;;;3.80;;
24901;SDS011;31328;51.402;0.016;2023-04-24T12:10:20;7.85;;;3.55;;
24901;SDS011;31328;51.402;0.016;2023-04-24T12:12:50;8.20;;;4.50;;
24901;SDS011;31328;51.402;0.016;2023-04-24T12:15:18;5.72;;;3.67;;
24901;SDS011;31328;51.402;0.016;2023-04-24T12:17:46;7.40;;;3.92;;
24901;SDS011;31328;51.402;0.016;2023-04-24T12:20:13;7.95;;;4.03;;
24901;SDS011;31328;51.402;0.016;2023-04-24T12:22:47;6.65;;;4.50;;
24901;SDS011;31328;51.402;0.016;2023-04-24T12:25:18;6.15;;;3.63;;
24901;SDS011;31328;51.402;0.016;2023-04-24T12:27:46;5.88;;;3.72;;
24901;SDS011;31328;51.402;0.016;2023-04-24T12:30:17;6.93;;;4.05;;
24901;SDS011;31328;51.402;0.016;2023-04-24T12:32:46;6.43;;;4.30;;
24901;SDS011;31328;51.402;0.016;2023-04-24T12:35:14;6.07;;;4.22;;
24901;SDS011;31328;51.402;0.016;2023-04-24T12:37:46;6.80;;;4.30;;
24901;SDS011;31328;51.402;0.016;2023-04-24T12:40:13;5.55;;;4.00;;
24901;SDS011;31328;51.402;0.016;2023-04-24T12:42:43;5.93;;;4.20;;
24901;SDS011;31328;51.402;0.016;2023-04-24T12:45:09;8.32;;;4.00;;
24901;SDS011;31328;51.402;0.016;2023-04-24T12:47:38;6.88;;;4.05;;
24901;SDS011;31328;51.402;0.016;2023-04-24T12:50:06;7.93;;;4.22;;
24901;SDS011;31328;51.402;0.016;2023-04-24T12:52:34;6.43;;;3.65;;
24901;SDS011;31328;51.402;0.016;2023-04-24T12:55:00;10.32;;;4.22;;
24901;SDS011;31328;51.402;0.016;2023-04-24T12:57:28;5.72;;;3.80;;
24901;SDS011;31328;51.402;0.016;2023-04-24T12:59:56;6.78;;;3.85;;
24901;SDS011;31328;51.402;0.016;2023-04-24T13:02:23;8.75;;;4.85;;
24901;SDS011;31328;51.402;0.016;2023-04-24T13:04:50;7.00;;;3.90;;
24901;SDS011;31328;51.402;0.016;2023-04-24T13:07:17;4.20;;;3.38;;
24901;SDS011;31328;51.402;0.016;2023-04-24T13:09:43;5.68;;;3.50;;
24901;SDS011;31328;51.402;0.016;2023-04-24T13:12:11;6.47;;;4.38;;
24901;SDS011;31328;51.402;0.016;2023-04-24T13:14:37;3.83;;;3.22;;
24901;SDS011;31328;51.402;0.016;2023-04-24T13:17:04;8.15;;;4.13;;
24901;SDS011;31328;51.402;0.016;2023-04-24T13:19:35;5.78;;;3.85;;
24901;SDS011;31328;51.402;0.016;2023-04-24T13:22:03;8.52;;;3.67;;
24901;SDS011;31328;51.402;0.016;2023-04-24T13:24:30;6.28;;;3.65;;
24901;SDS011;31328;51.402;0.016;2023-04-24T13:26:57;6.50;;;3.80;;
24901;SDS011;31328;51.402;0.016;2023-04-24T13:29:24;6.10;;;3.95;;
24901;SDS011;31328;51.402;0.016;2023-04-24T13:31:50;4.60;;;3.28;;
24901;SDS011;31328;51.402;0.016;2023-04-24T13:34:17;8.32;;;4.20;;
24901;SDS011;31328;51.402;0.016;2023-04-24T13:36:43;6.55;;;4.28;;
24901;SDS011;31328;51.402;0.016;2023-04-24T13:39:10;5.38;;;3.80;;
24901;SDS011;31328;51.402;0.016;2023-04-24T13:41:36;5.97;;;4.00;;
24901;SDS011;31328;51.402;0.016;2023-04-24T13:44:03;5.63;;;3.78;;
24901;SDS011;31328;51.402;0.016;2023-04-24T13:46:30;5.15;;;3.28;;
24901;SDS011;31328;51.402;0.016;2023-04-24T13:48:57;5.50;;;4.07;;
24901;SDS011;31328;51.402;0.016;2023-04-24T13:51:24;5.97;;;3.20;;
24901;SDS011;31328;51.402;0.016;2023-04-24T13:53:53;9.10;;;4.75;;
24901;SDS011;31328;51.402;0.016;2023-04-24T13:56:20;7.13;;;4.35;;
24901;SDS011;31328;51.402;0.016;2023-04-24T13:58:48;6.28;;;3.53;;
24901;SDS011;31328;51.402;0.016;2023-04-24T14:01:14;6.13;;;3.30;;
24901;SDS011;31328;51.402;0.016;2023-04-24T14:03:41;4.43;;;3.80;;
24901;SDS011;31328;51.402;0.016;2023-04-24T14:06:09;5.30;;;3.83;;
24901;SDS011;31328;51.402;0.016;2023-04-24T14:08:35;5.55;;;3.30;;
24901;SDS011;31328;51.402;0.016;2023-04-24T14:11:01;6.72;;;3.63;;
24901;SDS011;31328;51.402;0.016;2023-04-24T14:13:28;4.97;;;3.20;;
24901;SDS011;31328;51.402;0.016;2023-04-24T14:15:55;4.55;;;3.25;;
24901;SDS011;31328;51.402;0.016;2023-04-24T14:18:21;4.70;;;3.33;;
24901;SDS011;31328;51.402;0.016;2023-04-24T14:20:48;5.40;;;3.08;;
24901;SDS011;31328;51.402;0.016;2023-04-24T14:23:14;6.85;;;4.05;;
24901;SDS011;31328;51.402;0.016;2023-04-24T14:25:40;5.18;;;3.58;;
24901;SDS011;31328;51.402;0.016;2023-04-24T14:28:06;4.68;;;3.63;;
24901;SDS011;31328;51.402;0.016;2023-04-24T14:30:33;5.10;;;3.17;;
24901;SDS011;31328;51.402;0.016;2023-04-24T14:32:59;5.32;;;3.10;;
24901;SDS011;31328;51.402;0.016;2023-04-24T14:35:26;5.10;;;3.05;;
24901;SDS011;31328;51.402;0.016;2023-04-24T14:37:54;5.40;;;3.05;;
24901;SDS011;31328;51.402;0.016;2023-04-24T14:40:20;5.43;;;3.35;;
24901;SDS011;31328;51.402;0.016;2023-04-24T14:42:46;4.93;;;3.13;;
24901;SDS011;31328;51.402;0.016;2023-04-24T14:45:13;3.75;;;2.58;;
24901;SDS011;31328;51.402;0.016;2023-04-24T14:47:39;5.78;;;3.10;;
24901;SDS011;31328;51.402;0.016;2023-04-24T14:50:06;4.70;;;3.13;;
24901;SDS011;31328;51.402;0.016;2023-04-24T14:52:33;4.32;;;2.75;;
24901;SDS011;31328;51.402;0.016;2023-04-24T14:55:01;3.72;;;2.65;;
24901;SDS011;31328;51.402;0.016;2023-04-24T14:57:28;5.65;;;2.58;;
24901;SDS011;31328;51.402;0.016;2023-04-24T14:59:54;4.70;;;2.92;;